Time;durP1;ratioP1;P1;durP2;ratioP2;P2;SDS_P1;SDS_P2;PMS_P1;PMS_P2;Temp;Humidity;BMP_temperature;BMP_pressure;BME280_temperature;BME280_humidity;BME280_pressure;Samples;Min_cycle;Max_cycle;Signal;HPM_P1;HPM_P2
2022/08/02 00:01:41;;;;;;;5.93;4.60;;;20.20;99.90;;;;;;5015836;28;20072;-81
2022/08/02 00:04:07;;;;;;;5.57;3.97;;;20.10;99.90;;;;;;5000593;28;20026;-81
2022/08/02 00:06:33;;;;;;;5.23;4.33;;;20.10;99.90;;;;;;5017399;28;20033;-81
2022/08/02 00:09:01;;;;;;;8.57;5.40;;;20.10;99.90;;;;;;5012472;28;20261;-81
2022/08/02 00:11:27;;;;;;;7.78;4.25;;;20.10;99.90;;;;;;4997397;28;20116;-82
2022/08/02 00:13:53;;;;;;;7.53;4.00;;;20.10;99.90;;;;;;4996629;28;20030;-81
2022/08/02 00:16:19;;;;;;;5.77;4.53;;;20.10;99.90;;;;;;5003482;28;20038;-81
2022/08/02 00:18:44;;;;;;;6.03;4.40;;;20.10;99.90;;;;;;5018533;28;20030;-80
2022/08/02 00:21:10;;;;;;;5.50;4.87;;;20.10;99.90;;;;;;4999589;28;20050;-81
2022/08/02 00:23:36;;;;;;;5.00;4.30;;;20.00;99.90;;;;;;4999792;28;20030;-81
2022/08/02 00:26:02;;;;;;;9.33;4.57;;;20.00;99.90;;;;;;5000417;28;20032;-82
2022/08/02 00:28:28;;;;;;;7.47;4.35;;;20.00;99.90;;;;;;5017440;28;20097;-81
2022/08/02 00:30:54;;;;;;;5.70;4.33;;;20.00;99.90;;;;;;5018333;28;20042;-81
2022/08/02 00:33:20;;;;;;;6.22;3.75;;;20.00;99.90;;;;;;5015699;28;20473;-82
2022/08/02 00:35:46;;;;;;;5.00;4.10;;;20.00;99.90;;;;;;5029417;28;20037;-81
2022/08/02 00:38:12;;;;;;;6.25;4.30;;;19.90;99.90;;;;;;5014051;28;20061;-82
2022/08/02 00:40:38;;;;;;;4.75;4.22;;;19.80;99.90;;;;;;5013991;28;20084;-81
2022/08/02 00:43:09;;;;;;;6.37;4.40;;;19.80;99.90;;;;;;4983353;28;20105;-82
2022/08/02 00:45:37;;;;;;;7.00;4.10;;;19.80;99.90;;;;;;5000775;28;20128;-81
2022/08/02 00:48:04;;;;;;;5.50;3.65;;;19.80;99.90;;;;;;4999315;28;20026;-82
2022/08/02 00:50:31;;;;;;;5.35;3.83;;;19.80;99.90;;;;;;4984803;28;20038;-81
2022/08/02 00:52:57;;;;;;;4.97;4.30;;;19.70;99.90;;;;;;4980470;28;20069;-81
2022/08/02 00:55:23;;;;;;;7.30;4.40;;;19.80;99.90;;;;;;4996961;28;20030;-81
2022/08/02 00:57:49;;;;;;;5.87;4.50;;;19.70;99.90;;;;;;4996564;28;20026;-81
2022/08/02 01:00:15;;;;;;;6.70;4.47;;;19.70;99.90;;;;;;4981083;28;20053;-81
2022/08/02 01:02:41;;;;;;;4.75;3.92;;;19.70;99.90;;;;;;4996159;28;20611;-82
2022/08/02 01:05:07;;;;;;;5.77;4.67;;;19.60;99.90;;;;;;4997048;28;20118;-81
2022/08/02 01:07:32;;;;;;;6.72;4.97;;;19.60;99.90;;;;;;4997020;28;20054;-81
2022/08/02 01:09:59;;;;;;;5.77;4.37;;;19.60;99.90;;;;;;4998437;28;20041;-82
2022/08/02 01:12:26;;;;;;;5.45;4.63;;;19.60;99.90;;;;;;4981514;28;20116;-81
2022/08/02 01:14:54;;;;;;;6.35;5.72;;;19.60;99.90;;;;;;4997184;28;20034;-81
2022/08/02 01:18:08;;;;;;;5.57;4.40;;;19.60;99.90;;;;;;5004404;28;20460;-82
2022/08/02 01:21:39;;;;;;;4.82;4.20;;;19.60;99.90;;;;;;4980813;28;20504;-81
2022/08/02 01:24:22;;;;;;;6.72;4.95;;;19.50;99.90;;;;;;4978830;28;20117;-81
2022/08/02 01:27:19;;;;;;;5.32;4.43;;;19.50;99.90;;;;;;4997845;28;20037;-81
2022/08/02 01:29:45;;;;;;;6.43;4.28;;;19.50;99.90;;;;;;4996531;28;20041;-81
2022/08/02 01:32:25;;;;;;;7.37;4.30;;;19.40;99.90;;;;;;4980445;28;20026;-81
2022/08/02 01:34:56;;;;;;;6.68;4.20;;;19.40;99.90;;;;;;4995984;28;20022;-82
2022/08/02 01:37:34;;;;;;;6.43;4.28;;;19.40;99.90;;;;;;5024453;23;20049;-75
2022/08/02 01:40:07;;;;;;;;;;;19.30;99.90;;;;;;5018779;28;20065;-75
2022/08/02 01:42:32;;;;;;;5.85;4.63;;;19.30;99.90;;;;;;5015108;28;19941;-75
2022/08/02 01:44:58;;;;;;;6.20;4.43;;;19.30;99.90;;;;;;5032249;28;20076;-75
2022/08/02 01:47:28;;;;;;;6.50;5.30;;;19.30;99.90;;;;;;5026189;28;20045;-75
2022/08/02 01:49:54;;;;;;;5.40;4.75;;;19.30;99.90;;;;;;4980404;28;20113;-75
2022/08/02 01:52:21;;;;;;;5.43;4.85;;;19.30;99.90;;;;;;5012067;28;20049;-75
2022/08/02 01:55:02;;;;;;;7.57;5.43;;;19.20;99.90;;;;;;4992104;28;20053;-75
2022/08/02 01:57:39;;;;;;;6.22;4.82;;;19.20;99.90;;;;;;5008652;28;20034;-75
2022/08/02 02:00:07;;;;;;;;;;;19.10;99.90;;;;;;4992808;28;20493;-75
2022/08/02 02:02:33;;;;;;;6.00;4.00;;;19.10;99.90;;;;;;5004223;28;19971;-75
2022/08/02 02:04:59;;;;;;;6.80;4.93;;;19.10;99.90;;;;;;5012260;28;20037;-75
2022/08/02 02:07:24;;;;;;;5.90;4.77;;;19.00;99.90;;;;;;5011871;28;20034;-75
2022/08/02 02:09:50;;;;;;;5.17;4.63;;;19.00;99.90;;;;;;5012124;28;20029;-75
2022/08/02 02:12:16;;;;;;;5.70;4.87;;;18.90;99.90;;;;;;5011911;28;20401;-75
2022/08/02 02:14:42;;;;;;;5.23;4.43;;;18.90;99.90;;;;;;5011673;28;20148;-77
2022/08/02 02:17:08;;;;;;;6.45;5.18;;;18.90;99.90;;;;;;4995462;28;20269;-77
2022/08/02 02:19:35;;;;;;;6.30;5.00;;;18.90;99.90;;;;;;5009421;28;20034;-77
2022/08/02 02:22:01;;;;;;;6.70;5.15;;;18.80;99.90;;;;;;4990048;28;20022;-76
2022/08/02 02:24:27;;;;;;;6.47;5.10;;;18.70;99.90;;;;;;4994914;28;20389;-76
2022/08/02 02:26:53;;;;;;;5.63;4.80;;;18.70;99.90;;;;;;5011452;28;20025;-76
2022/08/02 02:29:20;;;;;;;6.77;4.97;;;18.70;99.90;;;;;;4995452;28;20025;-76
2022/08/02 02:31:46;;;;;;;6.00;5.18;;;18.70;99.90;;;;;;4979516;28;20030;-76
2022/08/02 02:34:19;;;;;;;6.53;5.03;;;18.70;99.90;;;;;;4995108;28;20621;-76
2022/08/02 02:36:48;;;;;;;7.93;5.25;;;18.60;99.90;;;;;;4980142;28;20500;-77
2022/08/02 02:39:14;;;;;;;7.13;5.20;;;18.60;99.90;;;;;;4995753;28;20029;-76
2022/08/02 02:41:41;;;;;;;5.43;4.68;;;18.50;99.90;;;;;;4995447;28;20038;-76
2022/08/02 02:44:09;;;;;;;7.65;5.57;;;18.50;99.90;;;;;;4962595;28;20084;-76
2022/08/02 02:46:35;;;;;;;6.47;5.25;;;18.60;99.90;;;;;;4979396;28;20036;-76
2022/08/02 02:49:01;;;;;;;7.13;5.20;;;18.50;99.90;;;;;;4974376;28;20026;-76
2022/08/02 02:51:26;;;;;;;7.23;5.00;;;18.60;99.90;;;;;;4979247;28;20030;-76
2022/08/02 02:53:52;;;;;;;9.03;5.07;;;18.60;99.90;;;;;;5011130;28;20064;-76
2022/08/02 02:56:18;;;;;;;7.43;4.60;;;18.50;99.90;;;;;;5011512;28;20513;-76
2022/08/02 02:58:45;;;;;;;6.43;5.00;;;18.40;99.90;;;;;;5011193;28;20482;-76
2022/08/02 03:04:06;;;;;;;7.78;5.03;;;18.30;99.90;;;;;;5010139;28;20116;-76
2022/08/02 03:06:32;;;;;;;8.18;4.63;;;18.20;99.90;;;;;;4994993;28;20032;-76
2022/08/02 03:08:58;;;;;;;5.40;4.25;;;18.20;99.90;;;;;;5011127;28;20084;-76
2022/08/02 03:11:28;;;;;;;8.77;5.43;;;18.20;99.90;;;;;;4978585;28;20038;-76
2022/08/02 03:14:02;;;;;;;6.82;4.38;;;18.10;99.90;;;;;;5012251;28;20489;-76
2022/08/02 03:16:28;;;;;;;6.80;4.78;;;18.00;99.90;;;;;;5011149;28;20069;-76
2022/08/02 03:18:55;;;;;;;5.23;4.13;;;18.00;99.90;;;;;;5010698;28;20065;-76
2022/08/02 03:21:21;;;;;;;5.88;4.60;;;17.90;99.90;;;;;;4994532;28;20034;-76
2022/08/02 03:23:47;;;;;;;9.97;5.53;;;17.90;99.90;;;;;;5010769;28;20024;-76
2022/08/02 03:26:13;;;;;;;7.30;5.30;;;17.90;99.90;;;;;;5011606;28;20536;-76
2022/08/02 03:28:39;;;;;;;6.55;4.90;;;17.90;99.90;;;;;;5011168;28;20084;-77
2022/08/02 03:31:05;;;;;;;8.38;4.93;;;17.80;99.90;;;;;;4994849;28;20025;-76
2022/08/02 03:33:31;;;;;;;6.57;4.97;;;17.80;99.90;;;;;;5012198;28;20117;-76
2022/08/02 03:36:13;;;;;;;8.75;5.30;;;17.80;99.90;;;;;;5011547;28;20022;-77
2022/08/02 03:38:39;;;;;;;12.80;5.75;;;17.80;99.90;;;;;;5011495;28;20045;-76
2022/08/02 03:41:05;;;;;;;6.38;4.53;;;17.80;99.90;;;;;;5010995;28;20045;-77
2022/08/02 03:43:30;;;;;;;9.20;5.37;;;17.80;99.90;;;;;;5011160;28;20064;-76
2022/08/02 03:45:56;;;;;;;6.10;5.10;;;17.80;99.90;;;;;;5010839;28;20026;-76
2022/08/02 03:48:22;;;;;;;8.70;5.60;;;17.80;99.90;;;;;;4993759;28;20375;-76
2022/08/02 03:50:48;;;;;;;7.27;5.23;;;17.90;99.90;;;;;;5010613;28;20506;-76
2022/08/02 03:53:15;;;;;;;9.50;5.57;;;17.90;99.90;;;;;;5010165;28;20042;-76
2022/08/02 03:55:41;;;;;;;7.00;5.05;;;17.90;99.90;;;;;;5010689;28;20048;-76
2022/08/02 03:58:06;;;;;;;5.50;4.90;;;17.90;99.90;;;;;;5010435;28;20034;-76
2022/08/02 04:00:32;;;;;;;8.30;5.00;;;17.80;99.90;;;;;;5010381;28;20037;-76
2022/08/02 04:02:58;;;;;;;8.90;5.10;;;17.80;99.90;;;;;;5009930;28;20030;-75
2022/08/02 04:05:24;;;;;;;6.43;5.00;;;17.70;99.90;;;;;;5010379;28;20030;-76
2022/08/02 04:07:50;;;;;;;7.23;5.50;;;17.70;99.90;;;;;;5010566;28;20026;-76
2022/08/02 04:10:16;;;;;;;8.90;5.40;;;17.70;99.90;;;;;;5010615;28;20083;-76
2022/08/02 04:12:42;;;;;;;6.95;4.78;;;17.70;99.90;;;;;;4993923;28;20501;-76
2022/08/02 04:15:09;;;;;;;9.70;5.60;;;17.70;99.90;;;;;;5010408;28;20054;-76
2022/08/02 04:17:40;;;;;;;5.95;4.72;;;17.70;99.90;;;;;;4997624;28;20116;-75
2022/08/02 04:20:13;;;;;;;6.90;5.40;;;17.70;99.90;;;;;;5014205;28;20037;-76
2022/08/02 04:23:05;;;;;;;7.05;5.82;;;17.70;99.90;;;;;;5013941;28;20273;-76
2022/08/02 04:25:31;;;;;;;8.25;5.85;;;17.70;99.90;;;;;;5013977;28;20025;-76
2022/08/02 04:27:58;;;;;;;6.30;5.25;;;17.70;99.90;;;;;;5014265;28;20029;-76
2022/08/02 04:30:24;;;;;;;8.65;5.32;;;17.80;99.90;;;;;;4997778;28;20172;-76
2022/08/02 04:32:50;;;;;;;11.13;5.50;;;17.70;99.90;;;;;;5013484;28;20489;-76
2022/08/02 04:35:16;;;;;;;7.82;5.45;;;17.80;99.90;;;;;;4997708;28;20045;-76
2022/08/02 04:37:43;;;;;;;7.97;5.60;;;17.80;99.90;;;;;;5013978;28;20042;-76
2022/08/02 04:40:12;;;;;;;7.78;5.60;;;17.80;99.90;;;;;;5013793;28;20036;-76
2022/08/02 04:42:37;;;;;;;6.68;4.97;;;17.80;99.90;;;;;;4997403;28;20069;-75
2022/08/02 04:45:05;;;;;;;7.60;5.13;;;17.80;99.90;;;;;;5006074;28;20053;-75
2022/08/02 04:47:30;;;;;;;7.63;5.10;;;17.80;99.90;;;;;;4991296;28;20501;-75
2022/08/02 04:49:56;;;;;;;7.03;5.73;;;17.90;99.90;;;;;;4989107;28;20060;-75
2022/08/02 04:52:22;;;;;;;9.27;5.67;;;17.90;99.90;;;;;;5011969;28;20112;-75
2022/08/02 04:54:48;;;;;;;10.10;5.40;;;17.90;99.90;;;;;;5011388;28;20096;-75
2022/08/02 05:00:17;;;;;;;7.15;5.10;;;17.90;99.90;;;;;;4992372;28;20522;-75
2022/08/02 05:02:43;;;;;;;12.67;5.97;;;18.00;99.90;;;;;;4975750;28;20030;-75
2022/08/02 05:05:09;;;;;;;7.70;6.20;;;17.90;99.90;;;;;;4991517;28;20627;-76
2022/08/02 05:07:34;;;;;;;9.67;6.83;;;17.90;99.90;;;;;;5013229;28;20501;-75
2022/08/02 05:10:00;;;;;;;13.20;6.57;;;17.90;99.90;;;;;;5013568;28;20080;-76
2022/08/02 05:12:26;;;;;;;8.50;6.30;;;17.80;99.90;;;;;;4994363;28;20041;-76
2022/08/02 05:14:52;;;;;;;8.33;5.80;;;17.80;99.90;;;;;;5011865;28;20033;-75
2022/08/02 05:17:18;;;;;;;9.67;6.00;;;17.80;99.90;;;;;;4992910;28;20065;-75
2022/08/02 05:19:43;;;;;;;7.13;5.80;;;17.80;99.90;;;;;;5014011;28;20033;-76
2022/08/02 05:22:09;;;;;;;9.87;7.93;;;17.70;99.90;;;;;;5013716;28;20140;-76
2022/08/02 05:24:35;;;;;;;12.73;8.63;;;17.60;99.90;;;;;;5012932;28;20057;-76
2022/08/02 05:27:01;;;;;;;8.70;6.10;;;17.60;99.90;;;;;;5012256;28;20101;-76
2022/08/02 05:29:26;;;;;;;10.90;6.67;;;17.60;99.90;;;;;;5011291;28;20034;-76
2022/08/02 05:31:53;;;;;;;8.80;6.00;;;17.70;99.90;;;;;;4996696;28;20038;-76
2022/08/02 05:34:18;;;;;;;10.38;6.38;;;17.70;99.90;;;;;;5013057;28;20037;-74
2022/08/02 05:36:44;;;;;;;9.83;5.73;;;17.80;99.90;;;;;;5009655;28;20497;-74
2022/08/02 05:39:10;;;;;;;7.73;5.33;;;17.80;99.90;;;;;;5011643;28;20057;-75
2022/08/02 05:41:36;;;;;;;9.40;6.60;;;18.00;99.90;;;;;;5005543;28;20038;-75
2022/08/02 05:44:02;;;;;;;8.43;6.40;;;18.00;99.90;;;;;;5013785;28;20525;-75
2022/08/02 05:46:28;;;;;;;9.77;6.40;;;18.10;99.90;;;;;;4996786;28;20026;-75
2022/08/02 05:48:54;;;;;;;8.67;6.43;;;18.20;99.90;;;;;;5013388;28;20037;-70
2022/08/02 05:51:29;;;;;;;9.13;6.73;;;18.30;99.90;;;;;;5013585;28;20026;-70
2022/08/02 05:53:59;;;;;;;8.73;5.97;;;18.50;99.90;;;;;;5013195;28;20486;-70
2022/08/02 05:56:41;;;;;;;7.40;5.78;;;18.50;99.90;;;;;;5012420;28;20112;-70
2022/08/02 05:59:32;;;;;;;11.93;5.82;;;18.60;99.90;;;;;;5013403;28;20045;-73
2022/08/02 06:02:02;;;;;;;9.70;5.97;;;18.70;99.90;;;;;;5012123;28;20498;-73
2022/08/02 06:05:03;;;;;;;8.15;5.75;;;18.80;99.90;;;;;;5011643;28;20478;-73
2022/08/02 06:07:29;;;;;;;7.13;5.07;;;18.80;99.90;;;;;;5013291;28;20044;-72
2022/08/02 06:09:55;;;;;;;6.72;5.18;;;18.90;99.90;;;;;;5012019;28;20430;-73
2022/08/02 06:12:20;;;;;;;6.70;5.40;;;19.00;99.90;;;;;;5011914;28;20033;-73
2022/08/02 06:14:46;;;;;;;9.63;6.33;;;19.00;99.90;;;;;;5011659;28;20261;-72
2022/08/02 06:17:12;;;;;;;9.97;6.43;;;19.10;99.90;;;;;;5011583;28;20034;-73
2022/08/02 06:19:38;;;;;;;11.87;6.83;;;19.10;99.90;;;;;;5011502;28;20030;-73
2022/08/02 06:22:14;;;;;;;11.25;7.03;;;19.10;99.90;;;;;;5011483;28;20033;-73
2022/08/02 06:24:44;;;;;;;9.85;6.15;;;19.10;99.90;;;;;;5011663;28;20033;-72
2022/08/02 06:27:13;;;;;;;11.10;7.20;;;19.20;99.90;;;;;;5011565;28;20490;-72
2022/08/02 06:29:41;;;;;;;12.35;7.65;;;19.20;99.90;;;;;;5013006;28;20497;-73
2022/08/02 06:32:08;;;;;;;11.85;7.05;;;19.30;99.90;;;;;;5011588;28;20088;-73
2022/08/02 06:34:40;;;;;;;8.57;6.50;;;19.40;99.90;;;;;;5012440;28;20033;-73
2022/08/02 06:37:18;;;;;;;11.88;6.70;;;19.40;99.90;;;;;;5012498;28;20105;-72
2022/08/02 06:39:47;;;;;;;8.90;6.32;;;19.50;99.90;;;;;;5010549;28;20026;-72
2022/08/02 06:42:17;;;;;;;9.98;6.88;;;19.60;99.90;;;;;;5012729;28;20032;-72
2022/08/02 06:44:43;;;;;;;12.88;6.32;;;19.60;99.90;;;;;;5011263;28;20030;-72
2022/08/02 06:47:08;;;;;;;13.17;6.70;;;19.70;99.90;;;;;;5027786;28;20367;-73
2022/08/02 06:49:34;;;;;;;9.77;6.80;;;19.80;99.90;;;;;;5011111;28;20033;-73
2022/08/02 06:52:00;;;;;;;11.60;6.60;;;19.80;99.90;;;;;;5011222;28;20037;-73
2022/08/02 06:54:26;;;;;;;10.07;5.87;;;19.90;99.90;;;;;;5010639;28;20038;-74
2022/08/02 06:56:51;;;;;;;12.27;6.97;;;20.00;99.90;;;;;;5012441;28;20037;-72
2022/08/02 06:59:17;;;;;;;10.10;6.63;;;20.00;99.90;;;;;;5012624;28;20049;-72
2022/08/02 07:01:48;;;;;;;10.05;6.50;;;20.10;99.90;;;;;;5114016;27;1251032;-72
2022/08/02 07:04:14;;;;;;;7.57;6.20;;;20.10;99.90;;;;;;5111843;28;20034;-72
2022/08/02 07:06:40;;;;;;;6.60;5.23;;;20.20;99.90;;;;;;5129904;28;20077;-72
2022/08/02 07:09:05;;;;;;;12.67;7.87;;;20.30;99.90;;;;;;5108723;28;20523;-73
2022/08/02 07:11:31;;;;;;;10.13;7.17;;;20.20;99.90;;;;;;5091040;28;20024;-73
2022/08/02 07:13:57;;;;;;;10.27;6.17;;;20.30;99.90;;;;;;5108829;28;20059;-72
2022/08/02 07:16:23;;;;;;;10.10;5.77;;;20.30;99.90;;;;;;5109079;28;20024;-73
2022/08/02 07:18:48;;;;;;;11.00;6.63;;;20.30;99.90;;;;;;5107455;28;20028;-73
2022/08/02 07:21:14;;;;;;;9.03;6.47;;;20.40;99.90;;;;;;5108718;28;20032;-73
2022/08/02 07:23:40;;;;;;;10.03;6.47;;;20.40;99.90;;;;;;5107365;28;20399;-74
2022/08/02 07:26:05;;;;;;;11.50;6.70;;;20.50;99.90;;;;;;5108946;28;20452;-74
2022/08/02 07:28:31;;;;;;;10.37;7.40;;;20.50;99.90;;;;;;5108528;28;20035;-73
2022/08/02 07:30:57;;;;;;;11.87;6.80;;;20.50;99.90;;;;;;5108747;28;20047;-73
2022/08/02 07:33:23;;;;;;;9.57;6.03;;;20.50;99.90;;;;;;5106866;28;20032;-74
2022/08/02 07:35:48;;;;;;;9.00;6.73;;;20.60;99.90;;;;;;5108530;28;20050;-73
2022/08/02 07:38:14;;;;;;;10.67;6.93;;;20.70;99.90;;;;;;5107244;28;20028;-73
2022/08/02 07:40:40;;;;;;;11.50;6.67;;;20.80;99.90;;;;;;5108430;28;20091;-73
2022/08/02 07:43:06;;;;;;;11.40;7.67;;;20.80;99.90;;;;;;5107976;28;20051;-73
2022/08/02 07:45:32;;;;;;;10.13;6.43;;;20.90;99.90;;;;;;5108255;28;20563;-73
2022/08/02 07:47:58;;;;;;;11.73;6.50;;;21.00;99.90;;;;;;5108220;28;20270;-73
2022/08/02 07:50:23;;;;;;;11.03;7.57;;;21.00;99.90;;;;;;5105370;28;20483;-73
2022/08/02 07:52:49;;;;;;;9.50;7.13;;;21.00;99.90;;;;;;5108164;28;20097;-73
2022/08/02 07:55:16;;;;;;;8.63;6.20;;;21.00;99.90;;;;;;5108310;28;20024;-73
2022/08/02 07:57:42;;;;;;;10.63;7.28;;;21.10;99.90;;;;;;5108049;28;20407;-73
2022/08/02 08:00:09;;;;;;;8.73;6.25;;;21.20;99.90;;;;;;5107776;28;20035;-73
2022/08/02 08:02:35;;;;;;;7.78;5.88;;;21.30;99.90;;;;;;5108016;28;20053;-73
2022/08/02 08:05:01;;;;;;;7.65;6.28;;;21.40;99.90;;;;;;5107446;28;20103;-73
2022/08/02 08:07:27;;;;;;;12.40;7.13;;;21.50;99.90;;;;;;5107801;28;20096;-73
2022/08/02 08:09:53;;;;;;;10.07;5.93;;;21.60;99.90;;;;;;5107815;28;20035;-73
2022/08/02 08:12:19;;;;;;;10.27;6.83;;;21.70;99.90;;;;;;5099387;28;20040;-73
2022/08/02 08:14:44;;;;;;;8.03;5.97;;;21.80;99.90;;;;;;5093967;28;20056;-73
2022/08/02 08:17:10;;;;;;;8.33;6.13;;;21.90;99.90;;;;;;5094154;28;20107;-73
2022/08/02 08:19:36;;;;;;;6.60;5.53;;;21.90;99.90;;;;;;5092412;28;20039;-73
2022/08/02 08:22:02;;;;;;;9.57;6.07;;;22.00;99.90;;;;;;5094452;28;20040;-73
2022/08/02 08:24:28;;;;;;;9.40;6.03;;;22.00;99.90;;;;;;5093860;28;20039;-73
2022/08/02 08:26:54;;;;;;;20.80;6.47;;;22.10;99.90;;;;;;5095195;28;20069;-73
2022/08/02 08:29:21;;;;;;;9.30;5.78;;;22.10;99.90;;;;;;5094413;28;20277;-73
2022/08/02 08:31:47;;;;;;;12.15;5.60;;;22.10;99.90;;;;;;5094084;28;20567;-73
2022/08/02 08:34:13;;;;;;;18.88;6.40;;;22.10;99.90;;;;;;5092717;28;20199;-73
2022/08/02 08:36:39;;;;;;;10.15;5.80;;;22.20;99.90;;;;;;5081092;28;20040;-73
2022/08/02 08:39:05;;;;;;;8.43;6.43;;;22.20;99.90;;;;;;5074671;28;20032;-73
2022/08/02 08:41:31;;;;;;;10.30;5.80;;;22.30;99.90;;;;;;5073825;28;20093;-73
2022/08/02 08:43:58;;;;;;;7.22;5.47;;;22.30;99.90;;;;;;5081931;28;20273;-73
2022/08/02 08:46:33;;;;;;;6.95;5.10;;;22.40;99.90;;;;;;5072618;28;20039;-73
2022/08/02 08:49:21;;;;;;;6.40;5.38;;;22.40;99.90;;;;;;5075845;28;20476;-73
2022/08/02 08:51:47;;;;;;;9.45;6.25;;;22.50;99.90;;;;;;5092106;28;20051;-74
2022/08/02 08:54:15;;;;;;;5.97;4.50;;;22.60;99.90;;;;;;5075446;28;20028;-73
2022/08/02 08:56:41;;;;;;;7.10;5.72;;;22.60;99.90;;;;;;5093615;28;20028;-73
2022/08/02 08:59:07;;;;;;;5.37;4.53;;;22.70;99.90;;;;;;5093491;28;20552;-73
2022/08/02 09:01:33;;;;;;;7.43;4.35;;;22.70;99.90;;;;;;5092140;28;20297;-73
2022/08/02 09:03:59;;;;;;;4.60;4.15;;;22.80;99.90;;;;;;5092658;28;20028;-73
2022/08/02 09:06:25;;;;;;;6.77;5.27;;;22.80;99.90;;;;;;5089028;28;20027;-73
2022/08/02 09:08:51;;;;;;;5.25;4.55;;;22.90;99.90;;;;;;5093524;28;20032;-73
2022/08/02 09:11:21;;;;;;;6.07;4.43;;;22.90;99.90;;;;;;5092099;28;20032;-73
2022/08/02 09:13:55;;;;;;;6.05;4.40;;;22.90;99.90;;;;;;5093000;28;20090;-73
2022/08/02 09:16:38;;;;;;;4.93;4.22;;;23.00;99.90;;;;;;5091996;28;20028;-73
2022/08/02 09:19:25;;;;;;;4.88;4.38;;;23.00;99.90;;;;;;5092827;28;20036;-73
2022/08/02 09:22:00;;;;;;;5.50;4.18;;;23.10;99.90;;;;;;5091819;28;20051;-73
2022/08/02 09:24:28;;;;;;;6.05;4.13;;;23.20;99.90;;;;;;5090721;28;20082;-76
2022/08/02 09:26:54;;;;;;;5.22;4.32;;;23.20;99.90;;;;;;5091590;28;20031;-76
2022/08/02 09:29:22;;;;;;;5.80;4.70;;;23.30;99.90;;;;;;5093060;28;20111;-76
2022/08/02 09:31:48;;;;;;;5.65;4.07;;;23.30;99.90;;;;;;5091104;28;20115;-76
2022/08/02 09:34:14;;;;;;;5.55;4.63;;;23.30;99.90;;;;;;5091229;28;20032;-76
2022/08/02 09:36:42;;;;;;;5.63;4.33;;;23.40;99.90;;;;;;5074611;28;20567;-75
2022/08/02 09:39:13;;;;;;;5.03;4.25;;;23.40;99.90;;;;;;5091246;28;20270;-76
2022/08/02 09:41:42;;;;;;;5.68;4.65;;;23.40;99.90;;;;;;5092610;28;20097;-75
2022/08/02 09:44:12;;;;;;;6.03;4.50;;;23.50;99.90;;;;;;5090977;28;20047;-76
2022/08/02 09:46:43;;;;;;;5.47;4.30;;;23.60;99.90;;;;;;5074918;28;20060;-75
2022/08/02 09:49:11;;;;;;;4.70;4.15;;;23.80;99.90;;;;;;5074055;28;20055;-76
2022/08/02 09:51:49;;;;;;;4.65;4.13;;;23.80;99.90;;;;;;5073912;28;20054;-76
2022/08/02 09:54:27;;;;;;;5.25;4.13;;;23.90;99.90;;;;;;5090854;28;20031;-76
2022/08/02 09:57:00;;;;;;;4.93;4.18;;;24.00;99.90;;;;;;5074521;28;20040;-76
2022/08/02 09:59:27;;;;;;;5.97;3.83;;;24.10;99.90;;;;;;5090958;28;20035;-75
2022/08/02 10:01:53;;;;;;;;;;;24.10;99.90;;;;;;5091159;28;20448;-76
2022/08/02 10:04:21;;;;;;;5.93;4.20;;;24.20;99.90;;;;;;5091649;28;19953;-75
2022/08/02 10:06:47;;;;;;;5.50;3.88;;;24.30;99.90;;;;;;5074219;28;20518;-75
2022/08/02 10:09:13;;;;;;;5.03;4.35;;;24.40;99.90;;;;;;5090846;28;20060;-75
2022/08/02 10:11:39;;;;;;;4.03;3.60;;;24.50;99.90;;;;;;5092094;28;20426;-76
2022/08/02 10:14:06;;;;;;;7.57;4.43;;;24.60;99.90;;;;;;5090524;28;20506;-75
2022/08/02 10:16:34;;;;;;;6.45;3.50;;;24.60;99.90;;;;;;5091773;28;20036;-76
2022/08/02 10:19:03;;;;;;;4.20;3.80;;;24.80;99.90;;;;;;5090394;28;20020;-77
2022/08/02 10:21:44;;;;;;;4.38;3.60;;;25.00;99.90;;;;;;5090500;28;20523;-76
2022/08/02 10:24:18;;;;;;;4.18;3.78;;;25.10;99.90;;;;;;5075207;28;20103;-76
2022/08/02 10:26:45;;;;;;;5.45;3.90;;;25.30;99.90;;;;;;5074521;28;20043;-76
2022/08/02 10:29:14;;;;;;;6.10;3.65;;;25.40;99.90;;;;;;5073502;28;20051;-76
2022/08/02 10:31:48;;;;;;;4.72;3.55;;;25.60;99.90;;;;;;5091441;28;20024;-77
2022/08/02 10:34:17;;;;;;;5.47;3.70;;;25.70;99.90;;;;;;5089664;28;20024;-76
2022/08/02 10:36:43;;;;;;;5.03;4.30;;;25.80;99.90;;;;;;5073970;28;20032;-76
2022/08/02 10:39:12;;;;;;;4.47;3.72;;;25.90;99.90;;;;;;5091538;28;20027;-77
2022/08/02 10:41:47;;;;;;;4.03;3.60;;;26.10;99.90;;;;;;5073779;28;20449;-76
2022/08/02 10:44:42;;;;;;;5.65;3.72;;;26.30;99.50;;;;;;5072709;28;20426;-76
2022/08/02 10:47:16;;;;;;;6.18;4.18;;;26.50;99.20;;;;;;5078688;28;20043;-76
2022/08/02 10:49:58;;;;;;;5.75;3.75;;;26.60;99.90;;;;;;5089221;28;20400;-76
2022/08/02 10:52:31;;;;;;;5.07;4.55;;;26.60;98.30;;;;;;5071391;28;20395;-76
2022/08/02 10:54:58;;;;;;;4.43;3.75;;;26.70;99.90;;;;;;5069805;28;20029;-76
2022/08/02 10:57:35;;;;;;;4.75;3.85;;;26.70;99.90;;;;;;5069814;28;20537;-76
2022/08/02 11:00:12;;;;;;;4.25;3.85;;;26.80;99.90;;;;;;5069902;28;20024;-75
2022/08/02 11:02:42;;;;;;;;;;;26.90;99.90;;;;;;5053663;28;20028;-75
2022/08/02 11:05:08;;;;;;;5.03;3.80;;;27.00;99.90;;;;;;5070885;28;19912;-76
2022/08/02 11:07:46;;;;;;;7.75;3.70;;;27.10;99.90;;;;;;5070754;28;20112;-76
2022/08/02 11:10:38;;;;;;;4.70;3.72;;;27.00;96.70;;;;;;5069811;28;20025;-76
2022/08/02 11:13:07;;;;;;;5.30;3.53;;;27.10;99.90;;;;;;5069393;28;20036;-76
2022/08/02 11:16:06;;;;;;;5.53;3.85;;;27.20;99.90;;;;;;5069879;28;20403;-76
2022/08/02 11:18:50;;;;;;;5.22;3.60;;;27.20;96.70;;;;;;5070659;28;20515;-76
2022/08/02 11:21:23;;;;;;;4.05;3.40;;;27.40;97.90;;;;;;5070461;28;20105;-76
2022/08/02 11:23:49;;;;;;;5.55;3.75;;;27.50;95.00;;;;;;5069476;28;20492;-76
2022/08/02 11:26:29;;;;;;;4.05;3.65;;;27.50;95.00;;;;;;5070997;28;20029;-76
2022/08/02 11:29:00;;;;;;;4.22;3.40;;;27.70;93.80;;;;;;5070884;28;20484;-76
2022/08/02 11:31:27;;;;;;;4.60;3.78;;;27.80;95.10;;;;;;5070576;28;20104;-76
2022/08/02 11:33:52;;;;;;;4.03;3.25;;;28.00;94.60;;;;;;5069413;28;20144;-76
2022/08/02 11:36:18;;;;;;;4.03;3.10;;;28.10;96.10;;;;;;5069256;28;20653;-76
2022/08/02 11:38:44;;;;;;;5.88;3.47;;;28.20;96.00;;;;;;5075949;28;20040;-77
2022/08/02 11:41:21;;;;;;;5.32;3.28;;;28.30;96.40;;;;;;5053034;28;20037;-77
2022/08/02 11:43:56;;;;;;;3.78;3.28;;;28.30;90.20;;;;;;5064501;28;20020;-76
2022/08/02 11:46:22;;;;;;;4.05;3.13;;;28.50;91.50;;;;;;5074532;28;20511;-76
2022/08/02 11:48:48;;;;;;;2.72;2.53;;;28.70;94.00;;;;;;5093637;28;20040;-76
2022/08/02 11:51:15;;;;;;;3.08;2.78;;;28.80;91.40;;;;;;5093863;28;20036;-77
2022/08/02 11:53:45;;;;;;;4.18;3.10;;;29.00;92.40;;;;;;5076314;28;20053;-76
2022/08/02 11:56:12;;;;;;;3.67;3.00;;;29.20;88.70;;;;;;5087766;28;20039;-77
2022/08/02 11:58:38;;;;;;;3.20;2.65;;;29.40;90.00;;;;;;5076230;28;20039;-77
2022/08/02 12:01:04;;;;;;;5.07;2.90;;;29.70;90.90;;;;;;5093227;28;20036;-76
2022/08/02 12:03:36;;;;;;;;;;;29.90;82.50;;;;;;5094700;28;20024;-76
2022/08/02 12:06:04;;;;;;;6.72;3.03;;;30.10;86.90;;;;;;5106502;28;19927;-76
2022/08/02 12:08:31;;;;;;;4.97;3.13;;;30.10;74.10;;;;;;5056664;28;20047;-77
2022/08/02 12:10:59;;;;;;;3.13;2.65;;;30.00;83.20;;;;;;5074323;28;20113;-77
2022/08/02 12:13:25;;;;;;;2.88;2.60;;;29.90;75.40;;;;;;5057178;28;20389;-76
2022/08/02 12:15:50;;;;;;;5.95;3.05;;;29.70;70.00;;;;;;5074121;28;20066;-76
2022/08/02 12:21:19;;;;;;;2.92;2.33;;;29.70;75.60;;;;;;5071196;28;20063;-76
2022/08/02 12:23:45;;;;;;;3.55;2.58;;;29.90;75.00;;;;;;5078810;28;20052;-77
2022/08/02 12:26:11;;;;;;;3.10;2.28;;;30.10;78.60;;;;;;5094795;28;20112;-77
2022/08/02 12:28:38;;;;;;;3.10;2.80;;;30.40;73.20;;;;;;5094966;28;20043;-77
2022/08/02 12:31:06;;;;;;;3.28;2.83;;;30.70;74.70;;;;;;5093345;28;20028;-77
2022/08/02 12:34:13;;;;;;;3.45;2.33;;;30.90;75.50;;;;;;5076769;28;20032;-77
2022/08/02 12:36:39;;;;;;;4.82;2.70;;;31.20;68.50;;;;;;5047549;28;20040;-77
2022/08/02 12:39:10;;;;;;;3.85;2.72;;;31.40;68.70;;;;;;5092924;28;20555;-77
2022/08/02 12:41:36;;;;;;;3.45;2.65;;;31.60;69.90;;;;;;5060259;28;20077;-77
2022/08/02 12:44:02;;;;;;;5.38;3.15;;;31.80;63.70;;;;;;5093833;28;20024;-77
2022/08/02 12:46:28;;;;;;;3.22;2.50;;;32.00;69.20;;;;;;5093193;28;20549;-77
2022/08/02 12:48:53;;;;;;;3.55;2.53;;;32.10;65.90;;;;;;5092611;28;20051;-78
2022/08/02 12:51:32;;;;;;;4.85;2.47;;;32.30;64.90;;;;;;5088784;28;20095;-77
2022/08/02 12:54:16;;;;;;;3.33;2.97;;;32.30;66.00;;;;;;5073076;28;20491;-77
2022/08/02 12:56:42;;;;;;;2.58;2.38;;;32.10;64.90;;;;;;5057712;28;20060;-76
2022/08/02 12:59:08;;;;;;;4.40;2.60;;;32.10;66.80;;;;;;5056191;28;20036;-77
2022/08/02 13:01:33;;;;;;;5.30;2.70;;;32.20;63.60;;;;;;5039542;28;20132;-77
2022/08/02 13:03:59;;;;;;;4.18;2.83;;;32.40;70.00;;;;;;5073142;28;20040;-77